sensor_id;sensor_type;location;lat;lon;timestamp;pressure;altitude;pressure_sealevel;temperature;humidity
54910;BME280;63189;51.240;9.964;2022-09-25T00:00:59;97580.03;;;11.94;92.57
54910;BME280;63189;51.240;9.964;2022-09-25T00:03:26;97577.47;;;11.92;92.45
54910;BME280;63189;51.240;9.964;2022-09-25T00:05:52;97585.31;;;11.92;92.80
54910;BME280;63189;51.240;9.964;2022-09-25T00:08:18;97571.53;;;11.89;92.53
54910;BME280;63189;51.240;9.964;2022-09-25T00:10:48;97584.53;;;11.90;93.06
54910;BME280;63189;51.240;9.964;2022-09-25T00:13:15;97584.59;;;11.89;92.91
54910;BME280;63189;51.240;9.964;2022-09-25T00:15:46;97582.88;;;11.88;92.99
54910;BME280;63189;51.240;9.964;2022-09-25T00:18:12;97576.09;;;11.83;93.28
54910;BME280;63189;51.240;9.964;2022-09-25T00:20:38;97584.78;;;11.84;93.58
54910;BME280;63189;51.240;9.964;2022-09-25T00:23:03;97577.91;;;11.81;93.60
54910;BME280;63189;51.240;9.964;2022-09-25T00:25:28;97571.84;;;11.81;93.84
54910;BME280;63189;51.240;9.964;2022-09-25T00:27:54;97573.63;;;11.80;93.68
54910;BME280;63189;51.240;9.964;2022-09-25T00:30:19;97566.69;;;11.79;93.59
54910;BME280;63189;51.240;9.964;2022-09-25T00:32:45;97558.94;;;11.76;93.59
54910;BME280;63189;51.240;9.964;2022-09-25T00:35:10;97560.75;;;11.74;93.24
54910;BME280;63189;51.240;9.964;2022-09-25T00:37:36;97557.38;;;11.72;93.31
54910;BME280;63189;51.240;9.964;2022-09-25T00:40:04;97559.19;;;11.70;93.77
54910;BME280;63189;51.240;9.964;2022-09-25T00:42:30;97563.50;;;11.71;94.08
54910;BME280;63189;51.240;9.964;2022-09-25T00:44:58;97562.53;;;11.74;93.91
54910;BME280;63189;51.240;9.964;2022-09-25T00:47:44;97557.31;;;11.74;93.99
54910;BME280;63189;51.240;9.964;2022-09-25T00:50:40;97547.00;;;11.71;93.59
54910;BME280;63189;51.240;9.964;2022-09-25T00:53:14;97549.78;;;11.66;93.62
54910;BME280;63189;51.240;9.964;2022-09-25T00:55:43;97559.28;;;11.69;93.15
54910;BME280;63189;51.240;9.964;2022-09-25T00:58:10;97555.84;;;11.67;93.54
54910;BME280;63189;51.240;9.964;2022-09-25T01:00:38;97549.84;;;11.65;93.56
54910;BME280;63189;51.240;9.964;2022-09-25T01:03:05;97544.69;;;11.63;93.72
54910;BME280;63189;51.240;9.964;2022-09-25T01:05:35;97549.91;;;11.63;93.27
54910;BME280;63189;51.240;9.964;2022-09-25T01:08:03;97553.44;;;11.62;93.47
54910;BME280;63189;51.240;9.964;2022-09-25T01:10:30;97556.13;;;11.61;93.48
54910;BME280;63189;51.240;9.964;2022-09-25T01:12:56;97556.19;;;11.59;93.56
54910;BME280;63189;51.240;9.964;2022-09-25T01:18:35;97562.41;;;11.55;94.00
54910;BME280;63189;51.240;9.964;2022-09-25T01:24:10;97561.78;;;11.50;93.83
54910;BME280;63189;51.240;9.964;2022-09-25T01:26:55;97561.78;;;11.50;93.72
54910;BME280;63189;51.240;9.964;2022-09-25T01:32:52;97560.16;;;11.47;93.80
54910;BME280;63189;51.240;9.964;2022-09-25T01:35:47;97561.84;;;11.48;94.02
54910;BME280;63189;51.240;9.964;2022-09-25T01:38:28;97543.63;;;11.47;93.11
54910;BME280;63189;51.240;9.964;2022-09-25T01:41:50;97559.03;;;11.53;93.10
54910;BME280;63189;51.240;9.964;2022-09-25T01:43:55;97550.34;;;11.52;92.67
54910;BME280;63189;51.240;9.964;2022-09-25T01:46:32;97554.72;;;11.52;92.87
54910;BME280;63189;51.240;9.964;2022-09-25T01:49:10;97552.91;;;11.54;92.51
54910;BME280;63189;51.240;9.964;2022-09-25T01:51:40;97552.91;;;11.54;93.04
54910;BME280;63189;51.240;9.964;2022-09-25T01:54:11;97537.44;;;11.49;93.11
54910;BME280;63189;51.240;9.964;2022-09-25T01:56:46;97540.97;;;11.48;92.71
54910;BME280;63189;51.240;9.964;2022-09-25T01:59:18;97539.28;;;11.46;92.89
54910;BME280;63189;51.240;9.964;2022-09-25T02:01:46;97542.19;;;11.40;93.32
54910;BME280;63189;51.240;9.964;2022-09-25T02:04:19;97544.72;;;11.41;93.49
54910;BME280;63189;51.240;9.964;2022-09-25T02:06:50;97536.88;;;11.41;93.44
54910;BME280;63189;51.240;9.964;2022-09-25T02:09:40;97545.75;;;11.37;94.04
54910;BME280;63189;51.240;9.964;2022-09-25T02:12:19;97545.69;;;11.39;93.75
54910;BME280;63189;51.240;9.964;2022-09-25T02:15:01;97546.63;;;11.38;93.68
54910;BME280;63189;51.240;9.964;2022-09-25T02:17:36;97543.19;;;11.36;93.75
54910;BME280;63189;51.240;9.964;2022-09-25T02:20:22;97542.41;;;11.34;94.37
54910;BME280;63189;51.240;9.964;2022-09-25T02:23:18;97547.75;;;11.31;94.76
54910;BME280;63189;51.240;9.964;2022-09-25T02:26:02;97543.38;;;11.31;94.79
54910;BME280;63189;51.240;9.964;2022-09-25T02:28:29;97542.53;;;11.31;94.48
54910;BME280;63189;51.240;9.964;2022-09-25T02:30:57;97539.00;;;11.32;94.28
54910;BME280;63189;51.240;9.964;2022-09-25T02:33:25;97542.41;;;11.34;94.51
54910;BME280;63189;51.240;9.964;2022-09-25T02:35:51;97542.25;;;11.38;94.40
54910;BME280;63189;51.240;9.964;2022-09-25T02:38:17;97540.47;;;11.39;94.32
54910;BME280;63189;51.240;9.964;2022-09-25T02:40:53;97542.03;;;11.43;94.10
54910;BME280;63189;51.240;9.964;2022-09-25T02:43:57;97537.66;;;11.43;94.51
54910;BME280;63189;51.240;9.964;2022-09-25T02:49:22;97548.00;;;11.46;93.79
54910;BME280;63189;51.240;9.964;2022-09-25T02:56:55;97544.78;;;11.40;94.01
54910;BME280;63189;51.240;9.964;2022-09-25T02:59:39;97537.88;;;11.39;94.41
54910;BME280;63189;51.240;9.964;2022-09-25T03:02:07;97544.84;;;11.38;94.42
54910;BME280;63189;51.240;9.964;2022-09-25T03:04:36;97545.69;;;11.39;94.15
54910;BME280;63189;51.240;9.964;2022-09-25T03:07:04;97557.00;;;11.39;94.40
54910;BME280;63189;51.240;9.964;2022-09-25T03:09:33;97550.06;;;11.38;94.58
54910;BME280;63189;51.240;9.964;2022-09-25T03:12:01;97554.31;;;11.41;94.52
54910;BME280;63189;51.240;9.964;2022-09-25T03:14:28;97545.63;;;11.40;94.57
54910;BME280;63189;51.240;9.964;2022-09-25T03:16:55;97542.03;;;11.43;94.57
54910;BME280;63189;51.240;9.964;2022-09-25T03:19:24;97541.25;;;11.41;94.84
54910;BME280;63189;51.240;9.964;2022-09-25T03:21:50;97543.88;;;11.41;94.91
54910;BME280;63189;51.240;9.964;2022-09-25T03:24:16;97529.13;;;11.40;95.01
54910;BME280;63189;51.240;9.964;2022-09-25T03:26:43;97542.88;;;11.43;94.99
54910;BME280;63189;51.240;9.964;2022-09-25T03:29:10;97547.13;;;11.46;94.89
54910;BME280;63189;51.240;9.964;2022-09-25T03:31:37;97524.13;;;11.34;94.95
54910;BME280;63189;51.240;9.964;2022-09-25T03:34:02;97540.47;;;11.39;95.05
54910;BME280;63189;51.240;9.964;2022-09-25T03:36:29;97541.50;;;11.35;95.51
54910;BME280;63189;51.240;9.964;2022-09-25T03:38:57;97552.63;;;11.40;94.91
54910;BME280;63189;51.240;9.964;2022-09-25T03:41:26;97547.53;;;11.37;95.57
54910;BME280;63189;51.240;9.964;2022-09-25T03:43:52;97547.53;;;11.37;94.97
54910;BME280;63189;51.240;9.964;2022-09-25T03:46:24;97552.69;;;11.38;95.69
54910;BME280;63189;51.240;9.964;2022-09-25T03:48:52;97546.72;;;11.35;95.54
54910;BME280;63189;51.240;9.964;2022-09-25T03:51:19;97538.03;;;11.34;95.64
54910;BME280;63189;51.240;9.964;2022-09-25T03:53:46;97532.88;;;11.33;95.16
54910;BME280;63189;51.240;9.964;2022-09-25T03:56:14;97528.44;;;11.35;95.59
54910;BME280;63189;51.240;9.964;2022-09-25T03:58:41;97544.09;;;11.35;95.66
54910;BME280;63189;51.240;9.964;2022-09-25T04:01:09;97544.16;;;11.33;95.52
54910;BME280;63189;51.240;9.964;2022-09-25T04:03:35;97547.53;;;11.37;95.61
54910;BME280;63189;51.240;9.964;2022-09-25T04:06:03;97538.88;;;11.35;95.56
54910;BME280;63189;51.240;9.964;2022-09-25T04:08:33;97537.03;;;11.38;95.64
54910;BME280;63189;51.240;9.964;2022-09-25T04:10:59;97535.25;;;11.39;95.83
54910;BME280;63189;51.240;9.964;2022-09-25T04:13:27;97539.56;;;11.40;96.03
54910;BME280;63189;51.240;9.964;2022-09-25T04:15:58;97531.03;;;11.36;95.77
54910;BME280;63189;51.240;9.964;2022-09-25T04:18:26;97525.97;;;11.32;95.99
54910;BME280;63189;51.240;9.964;2022-09-25T04:20:55;97542.19;;;11.40;96.16
54910;BME280;63189;51.240;9.964;2022-09-25T04:23:20;97519.97;;;11.30;96.00
54910;BME280;63189;51.240;9.964;2022-09-25T04:25:45;97531.88;;;11.37;95.54
54910;BME280;63189;51.240;9.964;2022-09-25T04:28:11;97532.72;;;11.37;96.11
54910;BME280;63189;51.240;9.964;2022-09-25T04:30:36;97527.44;;;11.39;96.17
54910;BME280;63189;51.240;9.964;2022-09-25T04:33:02;97529.34;;;11.34;95.96
54910;BME280;63189;51.240;9.964;2022-09-25T04:35:46;97524.06;;;11.35;96.31
54910;BME280;63189;51.240;9.964;2022-09-25T04:38:12;97516.44;;;11.31;95.62
54910;BME280;63189;51.240;9.964;2022-09-25T04:40:38;97529.34;;;11.34;95.38
54910;BME280;63189;51.240;9.964;2022-09-25T04:43:06;97529.41;;;11.32;95.60
54910;BME280;63189;51.240;9.964;2022-09-25T04:45:34;97528.72;;;11.28;95.82
54910;BME280;63189;51.240;9.964;2022-09-25T04:48:00;97536.34;;;11.33;95.74
54910;BME280;63189;51.240;9.964;2022-09-25T04:50:27;97532.88;;;11.33;95.67
54910;BME280;63189;51.240;9.964;2022-09-25T04:52:53;97533.94;;;11.28;96.24
54910;BME280;63189;51.240;9.964;2022-09-25T04:55:21;97536.53;;;11.28;95.98
54910;BME280;63189;51.240;9.964;2022-09-25T04:57:56;97532.22;;;11.27;95.98
54910;BME280;63189;51.240;9.964;2022-09-25T05:00:23;97533.94;;;11.28;95.73
54910;BME280;63189;51.240;9.964;2022-09-25T05:02:50;97535.63;;;11.30;95.59
54910;BME280;63189;51.240;9.964;2022-09-25T05:05:17;97532.22;;;11.27;95.91
54910;BME280;63189;51.240;9.964;2022-09-25T05:08:10;97539.94;;;11.31;96.30
54910;BME280;63189;51.240;9.964;2022-09-25T05:10:36;97540.13;;;11.26;95.84
54910;BME280;63189;51.240;9.964;2022-09-25T05:13:04;97534.72;;;11.31;95.71
54910;BME280;63189;51.240;9.964;2022-09-25T05:15:31;97535.63;;;11.30;96.06
54910;BME280;63189;51.240;9.964;2022-09-25T05:18:08;97539.06;;;11.30;96.14
54910;BME280;63189;51.240;9.964;2022-09-25T05:20:36;97537.31;;;11.31;96.14
54910;BME280;63189;51.240;9.964;2022-09-25T05:23:03;97539.00;;;11.32;95.83
54910;BME280;63189;51.240;9.964;2022-09-25T05:25:29;97528.84;;;11.25;95.93
54910;BME280;63189;51.240;9.964;2022-09-25T05:27:57;97533.09;;;11.28;95.90
54910;BME280;63189;51.240;9.964;2022-09-25T05:30:24;97537.19;;;11.34;95.85
54910;BME280;63189;51.240;9.964;2022-09-25T05:32:51;97539.78;;;11.34;95.66
54910;BME280;63189;51.240;9.964;2022-09-25T05:35:21;97544.06;;;11.36;96.27
54910;BME280;63189;51.240;9.964;2022-09-25T05:37:47;97540.66;;;11.34;95.89
54910;BME280;63189;51.240;9.964;2022-09-25T05:40:13;97540.56;;;11.36;95.87
54910;BME280;63189;51.240;9.964;2022-09-25T05:42:42;97540.56;;;11.36;95.80
54910;BME280;63189;51.240;9.964;2022-09-25T05:45:09;97533.78;;;11.32;95.90
54910;BME280;63189;51.240;9.964;2022-09-25T05:47:34;97537.97;;;11.36;95.61
54910;BME280;63189;51.240;9.964;2022-09-25T05:50:00;97537.88;;;11.39;95.92
54910;BME280;63189;51.240;9.964;2022-09-25T05:52:25;97539.63;;;11.38;95.67
54910;BME280;63189;51.240;9.964;2022-09-25T05:54:50;97535.25;;;11.39;95.88
54910;BME280;63189;51.240;9.964;2022-09-25T05:57:16;97537.88;;;11.39;95.87
54910;BME280;63189;51.240;9.964;2022-09-25T05:59:41;97542.03;;;11.43;95.48
54910;BME280;63189;51.240;9.964;2022-09-25T06:02:10;97541.03;;;11.47;95.74
54910;BME280;63189;51.240;9.964;2022-09-25T06:04:35;97543.63;;;11.47;95.61
54910;BME280;63189;51.240;9.964;2022-09-25T06:07:01;97541.91;;;11.46;95.45
54910;BME280;63189;51.240;9.964;2022-09-25T06:09:26;97535.75;;;11.48;95.71
54910;BME280;63189;51.240;9.964;2022-09-25T06:11:52;97536.69;;;11.46;95.32
54910;BME280;63189;51.240;9.964;2022-09-25T06:14:17;97535.00;;;11.45;95.20
54910;BME280;63189;51.240;9.964;2022-09-25T06:16:46;97537.66;;;11.43;94.94
54910;BME280;63189;51.240;9.964;2022-09-25T06:19:12;97541.03;;;11.47;95.06
54910;BME280;63189;51.240;9.964;2022-09-25T06:21:38;97533.28;;;11.44;95.03
54910;BME280;63189;51.240;9.964;2022-09-25T06:24:03;97540.13;;;11.48;95.27
54910;BME280;63189;51.240;9.964;2022-09-25T06:26:32;97541.88;;;11.47;95.27
54910;BME280;63189;51.240;9.964;2022-09-25T06:28:57;97525.41;;;11.45;95.16
54910;BME280;63189;51.240;9.964;2022-09-25T06:31:24;97527.16;;;11.45;94.69
54910;BME280;63189;51.240;9.964;2022-09-25T06:33:49;97534.88;;;11.48;95.33
54910;BME280;63189;51.240;9.964;2022-09-25T06:36:15;97543.50;;;11.50;95.27
54910;BME280;63189;51.240;9.964;2022-09-25T06:38:40;97534.69;;;11.52;95.27
54910;BME280;63189;51.240;9.964;2022-09-25T06:41:08;97534.63;;;11.54;95.66
54910;BME280;63189;51.240;9.964;2022-09-25T06:43:34;97537.13;;;11.57;95.54
54910;BME280;63189;51.240;9.964;2022-09-25T06:46:01;97538.75;;;11.60;95.58
54910;BME280;63189;51.240;9.964;2022-09-25T06:48:27;97546.53;;;11.61;95.68
54910;BME280;63189;51.240;9.964;2022-09-25T06:50:55;97539.47;;;11.63;95.92
54910;BME280;63189;51.240;9.964;2022-09-25T06:53:23;97542.00;;;11.65;95.37
54910;BME280;63189;51.240;9.964;2022-09-25T06:55:49;97535.94;;;11.64;95.52
54910;BME280;63189;51.240;9.964;2022-09-25T06:58:17;97533.41;;;11.63;95.69
54910;BME280;63189;51.240;9.964;2022-09-25T07:00:51;97545.09;;;11.74;96.02
54910;BME280;63189;51.240;9.964;2022-09-25T07:03:17;97541.47;;;11.78;96.06
54910;BME280;63189;51.240;9.964;2022-09-25T07:06:03;97539.66;;;11.80;95.44
54910;BME280;63189;51.240;9.964;2022-09-25T07:08:30;97541.34;;;11.81;95.36
54910;BME280;63189;51.240;9.964;2022-09-25T07:10:57;97546.25;;;11.89;95.88
54910;BME280;63189;51.240;9.964;2022-09-25T07:13:25;97540.06;;;11.92;96.04
54910;BME280;63189;51.240;9.964;2022-09-25T07:15:59;97541.69;;;11.94;95.52
54910;BME280;63189;51.240;9.964;2022-09-25T07:18:25;97544.16;;;11.97;96.28
54910;BME280;63189;51.240;9.964;2022-09-25T07:20:51;97537.13;;;11.99;95.48
54910;BME280;63189;51.240;9.964;2022-09-25T07:23:19;97535.00;;;12.07;96.27
54910;BME280;63189;51.240;9.964;2022-09-25T07:25:46;97533.91;;;12.13;96.46
54910;BME280;63189;51.240;9.964;2022-09-25T07:28:12;97533.63;;;12.19;95.47
54910;BME280;63189;51.240;9.964;2022-09-25T07:30:42;97540.44;;;12.23;94.71
54910;BME280;63189;51.240;9.964;2022-09-25T07:33:08;97536.13;;;12.22;94.19
54910;BME280;63189;51.240;9.964;2022-09-25T07:35:36;97534.91;;;12.29;94.84
54910;BME280;63189;51.240;9.964;2022-09-25T07:38:03;97541.59;;;12.36;93.89
54910;BME280;63189;51.240;9.964;2022-09-25T07:40:29;97542.16;;;12.43;94.12
54910;BME280;63189;51.240;9.964;2022-09-25T07:42:59;97538.50;;;12.47;93.58
54910;BME280;63189;51.240;9.964;2022-09-25T07:45:25;97534.75;;;12.53;93.53
54910;BME280;63189;51.240;9.964;2022-09-25T07:47:58;97535.41;;;12.58;92.63
54910;BME280;63189;51.240;9.964;2022-09-25T07:50:25;97538.66;;;12.63;93.35
54910;BME280;63189;51.240;9.964;2022-09-25T07:52:51;97540.06;;;12.70;92.49
54910;BME280;63189;51.240;9.964;2022-09-25T07:55:21;97546.31;;;12.86;91.79
54910;BME280;63189;51.240;9.964;2022-09-25T07:57:49;97547.34;;;13.01;91.55
54910;BME280;63189;51.240;9.964;2022-09-25T08:00:18;97540.50;;;12.98;91.37
54910;BME280;63189;51.240;9.964;2022-09-25T08:03:02;97538.94;;;12.94;90.93
54910;BME280;63189;51.240;9.964;2022-09-25T08:05:28;97521.13;;;12.84;90.43
54910;BME280;63189;51.240;9.964;2022-09-25T08:07:59;97530.59;;;12.86;89.97
54910;BME280;63189;51.240;9.964;2022-09-25T08:10:24;97528.75;;;12.88;89.04
54910;BME280;63189;51.240;9.964;2022-09-25T08:12:50;97520.28;;;12.83;88.73
54910;BME280;63189;51.240;9.964;2022-09-25T08:15:15;97543.25;;;12.95;89.24
54910;BME280;63189;51.240;9.964;2022-09-25T08:17:41;97546.56;;;12.99;89.16
54910;BME280;63189;51.240;9.964;2022-09-25T08:20:07;97540.22;;;13.05;88.74
54910;BME280;63189;51.240;9.964;2022-09-25T08:22:32;97544.38;;;13.09;88.92
54910;BME280;63189;51.240;9.964;2022-09-25T08:24:58;97550.25;;;13.14;89.32
54910;BME280;63189;51.240;9.964;2022-09-25T08:27:27;97546.16;;;13.08;88.55
54910;BME280;63189;51.240;9.964;2022-09-25T08:29:53;97551.53;;;13.05;89.00
54910;BME280;63189;51.240;9.964;2022-09-25T08:32:18;97545.72;;;12.98;88.22
54910;BME280;63189;51.240;9.964;2022-09-25T08:34:43;97551.25;;;12.92;88.12
54910;BME280;63189;51.240;9.964;2022-09-25T08:37:09;97553.88;;;12.92;88.80
54910;BME280;63189;51.240;9.964;2022-09-25T08:39:35;97551.38;;;12.89;89.00
54910;BME280;63189;51.240;9.964;2022-09-25T08:42:01;97553.22;;;12.87;88.98
54910;BME280;63189;51.240;9.964;2022-09-25T08:44:38;97550.63;;;12.87;89.60
54910;BME280;63189;51.240;9.964;2022-09-25T08:47:17;97548.91;;;12.86;89.83
54910;BME280;63189;51.240;9.964;2022-09-25T08:50:09;97553.38;;;12.84;89.18
54910;BME280;63189;51.240;9.964;2022-09-25T08:52:36;97546.56;;;12.80;88.86
54910;BME280;63189;51.240;9.964;2022-09-25T08:55:11;97540.41;;;12.81;88.54
54910;BME280;63189;51.240;9.964;2022-09-25T08:57:40;97544.94;;;12.78;89.00
54910;BME280;63189;51.240;9.964;2022-09-25T09:00:16;97540.66;;;12.77;88.65
54910;BME280;63189;51.240;9.964;2022-09-25T09:02:51;97545.28;;;12.70;88.71
54910;BME280;63189;51.240;9.964;2022-09-25T09:05:25;97550.75;;;12.65;89.00
54910;BME280;63189;51.240;9.964;2022-09-25T09:07:56;97549.81;;;12.66;88.76
54910;BME280;63189;51.240;9.964;2022-09-25T09:10:39;97555.91;;;12.67;88.91
54910;BME280;63189;51.240;9.964;2022-09-25T09:18:36;97562.28;;;12.80;89.59
54910;BME280;63189;51.240;9.964;2022-09-25T09:21:15;97556.34;;;12.77;88.69
54910;BME280;63189;51.240;9.964;2022-09-25T09:24:14;97555.34;;;12.79;88.65
54910;BME280;63189;51.240;9.964;2022-09-25T09:29:46;97559.53;;;12.83;88.93
54910;BME280;63189;51.240;9.964;2022-09-25T09:35:06;97553.50;;;12.81;88.10
54910;BME280;63189;51.240;9.964;2022-09-25T09:43:19;97550.63;;;12.87;89.20
54910;BME280;63189;51.240;9.964;2022-09-25T09:51:37;97540.06;;;12.89;87.73
54910;BME280;63189;51.240;9.964;2022-09-25T09:54:37;97546.31;;;12.86;86.09
54910;BME280;63189;51.240;9.964;2022-09-25T09:57:24;97546.44;;;12.83;86.47
54910;BME280;63189;51.240;9.964;2022-09-25T10:00:05;97547.31;;;12.84;86.59
54910;BME280;63189;51.240;9.964;2022-09-25T10:02:33;97547.22;;;12.85;87.45
54910;BME280;63189;51.240;9.964;2022-09-25T10:05:05;97549.84;;;12.85;88.25
54910;BME280;63189;51.240;9.964;2022-09-25T10:07:34;97551.38;;;12.89;88.41
54910;BME280;63189;51.240;9.964;2022-09-25T10:10:12;97547.00;;;12.90;89.24
54910;BME280;63189;51.240;9.964;2022-09-25T10:12:42;97549.53;;;12.91;88.33
54910;BME280;63189;51.240;9.964;2022-09-25T10:15:29;97554.00;;;12.89;88.30
54910;BME280;63189;51.240;9.964;2022-09-25T10:17:58;97556.78;;;12.86;88.32
54910;BME280;63189;51.240;9.964;2022-09-25T10:20:29;97557.84;;;12.82;87.84
54910;BME280;63189;51.240;9.964;2022-09-25T10:22:58;97560.88;;;12.73;87.40
54910;BME280;63189;51.240;9.964;2022-09-25T10:25:37;97555.06;;;12.66;87.41
54910;BME280;63189;51.240;9.964;2022-09-25T10:28:26;97558.00;;;12.59;87.03
54910;BME280;63189;51.240;9.964;2022-09-25T10:30:52;97554.69;;;12.55;87.63
54910;BME280;63189;51.240;9.964;2022-09-25T10:33:20;97547.84;;;12.53;88.05
54910;BME280;63189;51.240;9.964;2022-09-25T10:35:47;97556.66;;;12.50;87.66
54910;BME280;63189;51.240;9.964;2022-09-25T10:38:37;97556.59;;;12.52;88.83
54910;BME280;63189;51.240;9.964;2022-09-25T10:43:34;97553.91;;;12.53;88.31
54910;BME280;63189;51.240;9.964;2022-09-25T10:46:14;97553.78;;;12.56;87.93
54910;BME280;63189;51.240;9.964;2022-09-25T10:48:41;97549.53;;;12.54;87.62
54910;BME280;63189;51.240;9.964;2022-09-25T10:51:25;97550.94;;;12.61;87.72
54910;BME280;63189;51.240;9.964;2022-09-25T10:54:11;97549.75;;;12.68;88.39
54910;BME280;63189;51.240;9.964;2022-09-25T10:56:37;97541.63;;;12.74;87.53
54910;BME280;63189;51.240;9.964;2022-09-25T10:59:22;97542.91;;;12.84;87.33
54910;BME280;63189;51.240;9.964;2022-09-25T11:01:49;97553.09;;;12.90;87.02
54910;BME280;63189;51.240;9.964;2022-09-25T11:04:28;97549.53;;;12.91;86.56
54910;BME280;63189;51.240;9.964;2022-09-25T11:07:00;97550.53;;;12.89;86.02
54910;BME280;63189;51.240;9.964;2022-09-25T11:09:30;97544.47;;;12.88;86.30
54910;BME280;63189;51.240;9.964;2022-09-25T11:12:06;97547.00;;;12.90;86.36
54910;BME280;63189;51.240;9.964;2022-09-25T11:14:34;97547.84;;;12.90;86.25
54910;BME280;63189;51.240;9.964;2022-09-25T11:17:04;97538.94;;;12.94;85.79
54910;BME280;63189;51.240;9.964;2022-09-25T11:19:33;97543.34;;;12.94;84.92
54910;BME280;63189;51.240;9.964;2022-09-25T11:22:04;97546.94;;;12.91;84.84
54910;BME280;63189;51.240;9.964;2022-09-25T11:27:33;97541.66;;;12.93;85.35
54910;BME280;63189;51.240;9.964;2022-09-25T11:30:04;97550.38;;;12.92;84.11
54910;BME280;63189;51.240;9.964;2022-09-25T11:37:57;97546.72;;;12.77;83.28
54910;BME280;63189;51.240;9.964;2022-09-25T11:40:56;97552.22;;;12.71;83.74
54910;BME280;63189;51.240;9.964;2022-09-25T11:46:37;97533.44;;;12.63;83.16
54910;BME280;63189;51.240;9.964;2022-09-25T11:49:11;97536.69;;;12.68;84.41
54910;BME280;63189;51.240;9.964;2022-09-25T11:51:59;97534.72;;;12.73;84.58
54910;BME280;63189;51.240;9.964;2022-09-25T12:16:27;97523.69;;;12.85;83.03
54910;BME280;63189;51.240;9.964;2022-09-25T12:22:46;97514.97;;;12.85;81.82
54910;BME280;63189;51.240;9.964;2022-09-25T12:25:36;97517.44;;;12.88;82.39
54910;BME280;63189;51.240;9.964;2022-09-25T12:33:39;97507.69;;;12.91;81.97
54910;BME280;63189;51.240;9.964;2022-09-25T12:36:13;97515.69;;;12.88;81.74
54910;BME280;63189;51.240;9.964;2022-09-25T12:39:03;97510.78;;;12.81;81.37
54910;BME280;63189;51.240;9.964;2022-09-25T12:41:43;97513.50;;;12.79;82.52
54910;BME280;63189;51.240;9.964;2022-09-25T12:44:11;97515.31;;;12.77;82.40
54910;BME280;63189;51.240;9.964;2022-09-25T12:49:52;97510.38;;;12.71;81.48
54910;BME280;63189;51.240;9.964;2022-09-25T12:52:32;97507.75;;;12.71;81.95
54910;BME280;63189;51.240;9.964;2022-09-25T12:55:04;97504.25;;;12.72;82.32
54910;BME280;63189;51.240;9.964;2022-09-25T12:57:45;97497.25;;;12.73;82.74
54910;BME280;63189;51.240;9.964;2022-09-25T13:00:19;97502.41;;;12.74;82.27
54910;BME280;63189;51.240;9.964;2022-09-25T13:03:03;97492.72;;;12.76;82.81
54910;BME280;63189;51.240;9.964;2022-09-25T13:08:27;97508.13;;;12.82;82.87
54910;BME280;63189;51.240;9.964;2022-09-25T13:11:13;97495.47;;;12.73;81.74
54910;BME280;63189;51.240;9.964;2022-09-25T13:13:44;97502.66;;;12.68;81.10
54910;BME280;63189;51.240;9.964;2022-09-25T13:16:13;97501.91;;;12.66;81.07
54910;BME280;63189;51.240;9.964;2022-09-25T13:18:45;97505.44;;;12.65;81.29
54910;BME280;63189;51.240;9.964;2022-09-25T13:21:30;97502.97;;;12.62;81.32
54910;BME280;63189;51.240;9.964;2022-09-25T13:24:04;97509.09;;;12.61;81.54
54910;BME280;63189;51.240;9.964;2022-09-25T13:26:42;97502.16;;;12.60;80.97
54910;BME280;63189;51.240;9.964;2022-09-25T13:29:32;97503.88;;;12.61;81.41
54910;BME280;63189;51.240;9.964;2022-09-25T13:32:17;97494.47;;;12.57;81.52
54910;BME280;63189;51.240;9.964;2022-09-25T13:34:43;97496.81;;;12.63;81.83
54910;BME280;63189;51.240;9.964;2022-09-25T13:37:12;97488.06;;;12.64;81.48
54910;BME280;63189;51.240;9.964;2022-09-25T13:39:47;97488.91;;;12.64;81.50
54910;BME280;63189;51.240;9.964;2022-09-25T13:42:36;97483.59;;;12.66;81.13
54910;BME280;63189;51.240;9.964;2022-09-25T13:48:00;97471.78;;;12.76;81.10
54910;BME280;63189;51.240;9.964;2022-09-25T13:50:46;97457.94;;;12.74;80.60
54910;BME280;63189;51.240;9.964;2022-09-25T13:53:25;97461.31;;;12.76;79.91
54910;BME280;63189;51.240;9.964;2022-09-25T14:01:35;97459.03;;;12.87;78.90
54910;BME280;63189;51.240;9.964;2022-09-25T14:04:32;97456.16;;;12.93;79.32
54910;BME280;63189;51.240;9.964;2022-09-25T14:07:26;97457.44;;;13.02;79.25
54910;BME280;63189;51.240;9.964;2022-09-25T14:09:54;97456.31;;;13.08;79.28
54910;BME280;63189;51.240;9.964;2022-09-25T14:15:05;97451.78;;;13.11;78.63
54910;BME280;63189;51.240;9.964;2022-09-25T14:17:35;97445.41;;;13.17;78.62
54910;BME280;63189;51.240;9.964;2022-09-25T14:20:05;97448.94;;;13.16;77.86
54910;BME280;63189;51.240;9.964;2022-09-25T14:22:50;97445.56;;;13.14;77.76
54910;BME280;63189;51.240;9.964;2022-09-25T14:25:37;97442.16;;;13.12;76.18
54910;BME280;63189;51.240;9.964;2022-09-25T14:28:20;97441.22;;;13.13;76.94
54910;BME280;63189;51.240;9.964;2022-09-25T14:46:57;97430.38;;;13.03;76.56
54910;BME280;63189;51.240;9.964;2022-09-25T14:49:37;97433.84;;;13.04;76.34
54910;BME280;63189;51.240;9.964;2022-09-25T14:52:09;97424.91;;;13.08;76.63
54910;BME280;63189;51.240;9.964;2022-09-25T14:54:41;97420.53;;;13.08;76.89
54910;BME280;63189;51.240;9.964;2022-09-25T14:57:15;97409.97;;;13.10;76.69
54910;BME280;63189;51.240;9.964;2022-09-25T14:59:50;97412.59;;;13.10;76.47
54910;BME280;63189;51.240;9.964;2022-09-25T15:02:26;97421.22;;;13.12;76.90
54910;BME280;63189;51.240;9.964;2022-09-25T15:05:17;97421.16;;;13.13;75.67
54910;BME280;63189;51.240;9.964;2022-09-25T15:07:44;97423.06;;;13.10;75.81
54910;BME280;63189;51.240;9.964;2022-09-25T15:10:27;97425.00;;;13.06;75.31
54910;BME280;63189;51.240;9.964;2022-09-25T15:13:03;97419.75;;;13.06;75.94
54910;BME280;63189;51.240;9.964;2022-09-25T15:15:28;97417.97;;;13.07;76.08
54910;BME280;63189;51.240;9.964;2022-09-25T15:17:55;97418.06;;;13.05;76.34
54910;BME280;63189;51.240;9.964;2022-09-25T15:20:31;97421.59;;;13.04;75.83
54910;BME280;63189;51.240;9.964;2022-09-25T15:23:03;97415.53;;;13.04;75.72